sensor_id;sensor_type;location;lat;lon;timestamp;P1;durP1;ratioP1;P2;durP2;ratioP2
5831;SDS011;50943;51.448;7.646;2022-12-05T00:02:05;42.90;;;18.20;;
5831;SDS011;50943;51.448;7.646;2022-12-05T00:04:34;44.17;;;20.03;;
5831;SDS011;50943;51.448;7.646;2022-12-05T00:07:01;44.30;;;19.27;;
5831;SDS011;50943;51.448;7.646;2022-12-05T00:09:27;50.80;;;19.97;;
5831;SDS011;50943;51.448;7.646;2022-12-05T00:11:53;45.97;;;19.07;;
5831;SDS011;50943;51.448;7.646;2022-12-05T00:14:20;42.20;;;19.10;;
5831;SDS011;50943;51.448;7.646;2022-12-05T00:16:46;39.97;;;19.57;;
5831;SDS011;50943;51.448;7.646;2022-12-05T00:19:13;38.53;;;18.57;;
5831;SDS011;50943;51.448;7.646;2022-12-05T00:21:41;42.40;;;18.80;;
5831;SDS011;50943;51.448;7.646;2022-12-05T00:24:10;46.80;;;19.10;;
5831;SDS011;50943;51.448;7.646;2022-12-05T00:26:36;42.00;;;19.67;;
5831;SDS011;50943;51.448;7.646;2022-12-05T00:29:03;39.10;;;17.70;;
5831;SDS011;50943;51.448;7.646;2022-12-05T00:31:29;46.90;;;20.10;;
5831;SDS011;50943;51.448;7.646;2022-12-05T00:33:58;48.90;;;20.80;;
5831;SDS011;50943;51.448;7.646;2022-12-05T00:36:26;45.10;;;20.60;;
5831;SDS011;50943;51.448;7.646;2022-12-05T00:38:54;44.00;;;19.77;;
5831;SDS011;50943;51.448;7.646;2022-12-05T00:41:21;42.70;;;18.77;;
5831;SDS011;50943;51.448;7.646;2022-12-05T00:43:48;44.97;;;19.57;;
5831;SDS011;50943;51.448;7.646;2022-12-05T00:46:15;44.63;;;19.43;;
5831;SDS011;50943;51.448;7.646;2022-12-05T00:48:41;52.97;;;19.40;;
5831;SDS011;50943;51.448;7.646;2022-12-05T00:51:09;42.80;;;19.80;;
5831;SDS011;50943;51.448;7.646;2022-12-05T00:53:36;40.30;;;19.03;;
5831;SDS011;50943;51.448;7.646;2022-12-05T00:56:04;50.57;;;20.13;;
5831;SDS011;50943;51.448;7.646;2022-12-05T00:58:31;45.37;;;20.13;;
5831;SDS011;50943;51.448;7.646;2022-12-05T01:01:03;45.50;;;20.17;;
5831;SDS011;50943;51.448;7.646;2022-12-05T01:03:30;46.47;;;19.60;;
5831;SDS011;50943;51.448;7.646;2022-12-05T01:05:57;44.73;;;21.67;;
5831;SDS011;50943;51.448;7.646;2022-12-05T01:08:24;51.23;;;20.83;;
5831;SDS011;50943;51.448;7.646;2022-12-05T01:10:51;41.70;;;17.93;;
5831;SDS011;50943;51.448;7.646;2022-12-05T01:13:19;51.60;;;20.33;;
5831;SDS011;50943;51.448;7.646;2022-12-05T01:15:45;43.83;;;21.77;;
5831;SDS011;50943;51.448;7.646;2022-12-05T01:18:12;41.13;;;18.47;;
5831;SDS011;50943;51.448;7.646;2022-12-05T01:20:38;40.53;;;18.40;;
5831;SDS011;50943;51.448;7.646;2022-12-05T01:23:06;42.77;;;19.00;;
5831;SDS011;50943;51.448;7.646;2022-12-05T01:25:32;42.83;;;18.60;;
5831;SDS011;50943;51.448;7.646;2022-12-05T01:27:59;40.20;;;18.20;;
5831;SDS011;50943;51.448;7.646;2022-12-05T01:30:27;44.50;;;18.80;;
5831;SDS011;50943;51.448;7.646;2022-12-05T01:32:53;47.13;;;19.97;;
5831;SDS011;50943;51.448;7.646;2022-12-05T01:35:20;37.10;;;16.60;;
5831;SDS011;50943;51.448;7.646;2022-12-05T01:37:46;42.63;;;18.90;;
5831;SDS011;50943;51.448;7.646;2022-12-05T01:40:13;39.97;;;18.50;;
5831;SDS011;50943;51.448;7.646;2022-12-05T01:42:39;44.83;;;18.30;;
5831;SDS011;50943;51.448;7.646;2022-12-05T01:45:07;36.63;;;15.93;;
5831;SDS011;50943;51.448;7.646;2022-12-05T01:47:39;40.70;;;17.70;;
5831;SDS011;50943;51.448;7.646;2022-12-05T01:50:06;36.57;;;18.17;;
5831;SDS011;50943;51.448;7.646;2022-12-05T01:52:33;37.37;;;16.40;;
5831;SDS011;50943;51.448;7.646;2022-12-05T01:55:02;44.43;;;17.13;;
5831;SDS011;50943;51.448;7.646;2022-12-05T01:57:29;36.53;;;16.03;;
5831;SDS011;50943;51.448;7.646;2022-12-05T01:59:57;42.73;;;17.87;;
5831;SDS011;50943;51.448;7.646;2022-12-05T02:02:25;37.77;;;16.50;;
5831;SDS011;50943;51.448;7.646;2022-12-05T02:04:55;35.80;;;16.87;;
5831;SDS011;50943;51.448;7.646;2022-12-05T02:07:25;34.60;;;16.03;;
5831;SDS011;50943;51.448;7.646;2022-12-05T02:09:52;40.73;;;15.67;;
5831;SDS011;50943;51.448;7.646;2022-12-05T02:12:19;34.57;;;16.60;;
5831;SDS011;50943;51.448;7.646;2022-12-05T02:14:48;38.20;;;17.43;;
5831;SDS011;50943;51.448;7.646;2022-12-05T02:17:22;38.83;;;17.90;;
5831;SDS011;50943;51.448;7.646;2022-12-05T02:19:52;39.90;;;18.03;;
5831;SDS011;50943;51.448;7.646;2022-12-05T02:22:26;39.53;;;18.67;;
5831;SDS011;50943;51.448;7.646;2022-12-05T02:25:02;43.83;;;18.43;;
5831;SDS011;50943;51.448;7.646;2022-12-05T02:27:38;41.87;;;18.20;;
5831;SDS011;50943;51.448;7.646;2022-12-05T02:30:11;41.23;;;17.67;;
5831;SDS011;50943;51.448;7.646;2022-12-05T02:32:43;37.50;;;16.60;;
5831;SDS011;50943;51.448;7.646;2022-12-05T02:35:15;39.07;;;16.37;;
5831;SDS011;50943;51.448;7.646;2022-12-05T02:37:48;40.93;;;17.57;;
5831;SDS011;50943;51.448;7.646;2022-12-05T02:40:19;41.00;;;17.40;;
5831;SDS011;50943;51.448;7.646;2022-12-05T02:42:49;41.87;;;17.70;;
5831;SDS011;50943;51.448;7.646;2022-12-05T02:45:20;34.30;;;15.83;;
5831;SDS011;50943;51.448;7.646;2022-12-05T02:47:50;39.60;;;16.30;;
5831;SDS011;50943;51.448;7.646;2022-12-05T02:50:17;38.17;;;17.80;;
5831;SDS011;50943;51.448;7.646;2022-12-05T02:52:46;44.13;;;17.67;;
5831;SDS011;50943;51.448;7.646;2022-12-05T02:55:13;40.97;;;17.83;;
5831;SDS011;50943;51.448;7.646;2022-12-05T02:57:41;36.90;;;17.90;;
5831;SDS011;50943;51.448;7.646;2022-12-05T03:00:09;41.77;;;17.23;;
5831;SDS011;50943;51.448;7.646;2022-12-05T03:02:38;42.07;;;18.73;;
5831;SDS011;50943;51.448;7.646;2022-12-05T03:05:08;41.73;;;17.20;;
5831;SDS011;50943;51.448;7.646;2022-12-05T03:07:36;38.83;;;18.13;;
5831;SDS011;50943;51.448;7.646;2022-12-05T03:10:03;37.10;;;17.13;;
5831;SDS011;50943;51.448;7.646;2022-12-05T03:12:32;38.47;;;18.73;;
5831;SDS011;50943;51.448;7.646;2022-12-05T03:15:02;45.20;;;19.57;;
5831;SDS011;50943;51.448;7.646;2022-12-05T03:17:29;47.50;;;18.63;;
5831;SDS011;50943;51.448;7.646;2022-12-05T03:19:58;52.37;;;18.93;;
5831;SDS011;50943;51.448;7.646;2022-12-05T03:22:29;37.57;;;17.67;;
5831;SDS011;50943;51.448;7.646;2022-12-05T03:24:57;39.77;;;18.23;;
5831;SDS011;50943;51.448;7.646;2022-12-05T03:27:24;45.40;;;18.37;;
5831;SDS011;50943;51.448;7.646;2022-12-05T03:29:53;36.87;;;17.00;;
5831;SDS011;50943;51.448;7.646;2022-12-05T03:32:21;41.70;;;17.77;;
5831;SDS011;50943;51.448;7.646;2022-12-05T03:34:52;42.43;;;17.47;;
5831;SDS011;50943;51.448;7.646;2022-12-05T03:37:23;37.60;;;16.30;;
5831;SDS011;50943;51.448;7.646;2022-12-05T03:39:53;37.00;;;17.47;;
5831;SDS011;50943;51.448;7.646;2022-12-05T03:42:21;34.60;;;15.80;;
5831;SDS011;50943;51.448;7.646;2022-12-05T03:44:55;41.33;;;16.67;;
5831;SDS011;50943;51.448;7.646;2022-12-05T03:47:24;40.40;;;16.70;;
5831;SDS011;50943;51.448;7.646;2022-12-05T03:49:53;38.27;;;17.10;;
5831;SDS011;50943;51.448;7.646;2022-12-05T03:52:23;39.47;;;19.30;;
5831;SDS011;50943;51.448;7.646;2022-12-05T03:54:54;35.80;;;16.27;;
5831;SDS011;50943;51.448;7.646;2022-12-05T03:57:21;37.43;;;16.20;;
5831;SDS011;50943;51.448;7.646;2022-12-05T03:59:50;41.23;;;16.70;;
5831;SDS011;50943;51.448;7.646;2022-12-05T04:02:20;45.80;;;17.87;;
5831;SDS011;50943;51.448;7.646;2022-12-05T04:04:47;35.60;;;16.70;;
5831;SDS011;50943;51.448;7.646;2022-12-05T04:07:16;39.80;;;17.97;;
5831;SDS011;50943;51.448;7.646;2022-12-05T04:09:46;39.50;;;16.40;;
5831;SDS011;50943;51.448;7.646;2022-12-05T04:12:14;43.40;;;17.03;;
5831;SDS011;50943;51.448;7.646;2022-12-05T04:14:43;39.80;;;16.40;;
5831;SDS011;50943;51.448;7.646;2022-12-05T04:17:10;40.70;;;17.00;;
5831;SDS011;50943;51.448;7.646;2022-12-05T04:19:39;36.50;;;15.90;;
5831;SDS011;50943;51.448;7.646;2022-12-05T04:22:24;40.67;;;16.60;;
5831;SDS011;50943;51.448;7.646;2022-12-05T04:24:52;39.60;;;16.53;;
5831;SDS011;50943;51.448;7.646;2022-12-05T04:27:38;39.13;;;15.40;;
5831;SDS011;50943;51.448;7.646;2022-12-05T04:30:07;31.40;;;14.00;;
5831;SDS011;50943;51.448;7.646;2022-12-05T04:32:36;41.23;;;17.03;;
5831;SDS011;50943;51.448;7.646;2022-12-05T04:35:05;46.20;;;17.63;;
5831;SDS011;50943;51.448;7.646;2022-12-05T04:37:32;40.03;;;17.30;;
5831;SDS011;50943;51.448;7.646;2022-12-05T04:40:03;37.37;;;16.30;;
5831;SDS011;50943;51.448;7.646;2022-12-05T04:42:32;35.60;;;16.10;;
5831;SDS011;50943;51.448;7.646;2022-12-05T04:45:01;36.30;;;15.90;;
5831;SDS011;50943;51.448;7.646;2022-12-05T04:47:30;29.43;;;14.07;;
5831;SDS011;50943;51.448;7.646;2022-12-05T04:49:57;35.40;;;15.63;;
5831;SDS011;50943;51.448;7.646;2022-12-05T04:52:25;36.97;;;16.43;;
5831;SDS011;50943;51.448;7.646;2022-12-05T04:54:53;31.70;;;15.30;;
5831;SDS011;50943;51.448;7.646;2022-12-05T04:57:23;33.07;;;14.37;;
5831;SDS011;50943;51.448;7.646;2022-12-05T04:59:50;31.33;;;14.77;;
5831;SDS011;50943;51.448;7.646;2022-12-05T05:02:17;31.30;;;16.10;;
5831;SDS011;50943;51.448;7.646;2022-12-05T05:04:46;31.27;;;14.67;;
5831;SDS011;50943;51.448;7.646;2022-12-05T05:07:12;36.07;;;15.17;;
5831;SDS011;50943;51.448;7.646;2022-12-05T05:09:39;36.67;;;15.30;;
5831;SDS011;50943;51.448;7.646;2022-12-05T05:12:06;36.23;;;16.00;;
5831;SDS011;50943;51.448;7.646;2022-12-05T05:14:34;34.70;;;14.90;;
5831;SDS011;50943;51.448;7.646;2022-12-05T05:17:01;34.20;;;14.60;;
5831;SDS011;50943;51.448;7.646;2022-12-05T05:19:27;33.90;;;15.63;;
5831;SDS011;50943;51.448;7.646;2022-12-05T05:21:53;30.10;;;14.43;;
5831;SDS011;50943;51.448;7.646;2022-12-05T05:24:20;31.30;;;15.00;;
5831;SDS011;50943;51.448;7.646;2022-12-05T05:26:47;29.97;;;14.07;;
5831;SDS011;50943;51.448;7.646;2022-12-05T05:29:14;30.80;;;15.70;;
5831;SDS011;50943;51.448;7.646;2022-12-05T05:31:42;38.20;;;15.97;;
5831;SDS011;50943;51.448;7.646;2022-12-05T05:34:09;32.70;;;14.00;;
5831;SDS011;50943;51.448;7.646;2022-12-05T05:36:36;29.53;;;14.30;;
5831;SDS011;50943;51.448;7.646;2022-12-05T05:39:04;34.73;;;15.77;;
5831;SDS011;50943;51.448;7.646;2022-12-05T05:41:31;30.23;;;14.47;;
5831;SDS011;50943;51.448;7.646;2022-12-05T05:43:58;30.33;;;14.60;;
5831;SDS011;50943;51.448;7.646;2022-12-05T05:46:26;28.80;;;13.27;;
5831;SDS011;50943;51.448;7.646;2022-12-05T05:48:54;28.67;;;12.30;;
5831;SDS011;50943;51.448;7.646;2022-12-05T05:51:20;28.37;;;12.97;;
5831;SDS011;50943;51.448;7.646;2022-12-05T05:53:47;33.10;;;14.43;;
5831;SDS011;50943;51.448;7.646;2022-12-05T05:56:15;27.10;;;12.80;;
5831;SDS011;50943;51.448;7.646;2022-12-05T05:58:41;26.20;;;13.10;;
5831;SDS011;50943;51.448;7.646;2022-12-05T06:01:08;29.57;;;13.27;;
5831;SDS011;50943;51.448;7.646;2022-12-05T06:03:35;29.03;;;14.07;;
5831;SDS011;50943;51.448;7.646;2022-12-05T06:06:04;24.83;;;12.47;;
5831;SDS011;50943;51.448;7.646;2022-12-05T06:08:30;26.70;;;12.67;;
5831;SDS011;50943;51.448;7.646;2022-12-05T06:10:57;31.00;;;13.20;;
5831;SDS011;50943;51.448;7.646;2022-12-05T06:13:24;30.13;;;13.43;;
5831;SDS011;50943;51.448;7.646;2022-12-05T06:15:50;26.50;;;13.00;;
5831;SDS011;50943;51.448;7.646;2022-12-05T06:18:16;27.40;;;13.77;;
5831;SDS011;50943;51.448;7.646;2022-12-05T06:20:50;29.73;;;13.03;;
5831;SDS011;50943;51.448;7.646;2022-12-05T06:23:18;29.37;;;12.90;;
5831;SDS011;50943;51.448;7.646;2022-12-05T06:25:46;28.70;;;12.73;;
5831;SDS011;50943;51.448;7.646;2022-12-05T06:28:12;28.00;;;13.40;;
5831;SDS011;50943;51.448;7.646;2022-12-05T06:30:39;25.90;;;12.27;;
5831;SDS011;50943;51.448;7.646;2022-12-05T06:33:05;24.00;;;12.03;;
5831;SDS011;50943;51.448;7.646;2022-12-05T06:35:31;25.67;;;12.30;;
5831;SDS011;50943;51.448;7.646;2022-12-05T06:37:58;22.10;;;11.60;;
5831;SDS011;50943;51.448;7.646;2022-12-05T06:40:26;23.30;;;11.37;;
5831;SDS011;50943;51.448;7.646;2022-12-05T06:42:53;27.07;;;13.93;;
5831;SDS011;50943;51.448;7.646;2022-12-05T06:45:20;25.63;;;12.17;;
5831;SDS011;50943;51.448;7.646;2022-12-05T06:47:47;24.47;;;12.70;;
5831;SDS011;50943;51.448;7.646;2022-12-05T06:50:13;24.40;;;11.97;;
5831;SDS011;50943;51.448;7.646;2022-12-05T06:52:41;25.27;;;11.00;;
5831;SDS011;50943;51.448;7.646;2022-12-05T06:55:07;22.20;;;11.23;;
5831;SDS011;50943;51.448;7.646;2022-12-05T06:57:35;23.53;;;12.33;;
5831;SDS011;50943;51.448;7.646;2022-12-05T07:00:03;23.93;;;11.87;;
5831;SDS011;50943;51.448;7.646;2022-12-05T07:02:43;21.10;;;11.73;;
5831;SDS011;50943;51.448;7.646;2022-12-05T07:05:09;26.70;;;11.87;;
5831;SDS011;50943;51.448;7.646;2022-12-05T07:07:37;27.60;;;11.73;;
5831;SDS011;50943;51.448;7.646;2022-12-05T07:10:04;20.27;;;10.40;;
5831;SDS011;50943;51.448;7.646;2022-12-05T07:12:31;24.53;;;10.30;;
5831;SDS011;50943;51.448;7.646;2022-12-05T07:15:00;28.40;;;15.23;;
5831;SDS011;50943;51.448;7.646;2022-12-05T07:17:26;28.50;;;13.70;;
5831;SDS011;50943;51.448;7.646;2022-12-05T07:19:54;34.30;;;16.90;;
5831;SDS011;50943;51.448;7.646;2022-12-05T07:22:21;44.10;;;20.27;;
5831;SDS011;50943;51.448;7.646;2022-12-05T07:24:49;28.20;;;14.70;;
5831;SDS011;50943;51.448;7.646;2022-12-05T07:27:16;25.40;;;12.27;;
5831;SDS011;50943;51.448;7.646;2022-12-05T07:29:42;23.90;;;11.30;;
5831;SDS011;50943;51.448;7.646;2022-12-05T07:32:10;19.87;;;11.17;;
5831;SDS011;50943;51.448;7.646;2022-12-05T07:34:36;19.80;;;10.60;;
5831;SDS011;50943;51.448;7.646;2022-12-05T07:37:06;17.47;;;9.80;;
5831;SDS011;50943;51.448;7.646;2022-12-05T07:39:32;24.80;;;12.50;;
5831;SDS011;50943;51.448;7.646;2022-12-05T07:41:59;26.20;;;12.73;;
5831;SDS011;50943;51.448;7.646;2022-12-05T07:44:25;36.17;;;16.77;;
5831;SDS011;50943;51.448;7.646;2022-12-05T07:46:52;23.30;;;12.50;;
5831;SDS011;50943;51.448;7.646;2022-12-05T07:49:20;21.97;;;13.13;;
5831;SDS011;50943;51.448;7.646;2022-12-05T07:51:46;20.20;;;12.87;;
5831;SDS011;50943;51.448;7.646;2022-12-05T07:54:12;17.60;;;11.30;;
5831;SDS011;50943;51.448;7.646;2022-12-05T07:56:39;18.87;;;10.40;;
5831;SDS011;50943;51.448;7.646;2022-12-05T07:59:05;21.20;;;9.70;;
5831;SDS011;50943;51.448;7.646;2022-12-05T08:01:31;22.47;;;10.70;;
5831;SDS011;50943;51.448;7.646;2022-12-05T08:03:58;23.40;;;13.07;;
5831;SDS011;50943;51.448;7.646;2022-12-05T08:06:27;21.63;;;11.67;;
5831;SDS011;50943;51.448;7.646;2022-12-05T08:08:54;30.10;;;15.90;;
5831;SDS011;50943;51.448;7.646;2022-12-05T08:11:21;37.33;;;17.77;;
5831;SDS011;50943;51.448;7.646;2022-12-05T08:13:48;46.73;;;18.50;;
5831;SDS011;50943;51.448;7.646;2022-12-05T08:16:15;35.40;;;14.53;;
5831;SDS011;50943;51.448;7.646;2022-12-05T08:18:42;46.67;;;16.80;;
5831;SDS011;50943;51.448;7.646;2022-12-05T08:21:10;35.63;;;15.00;;
5831;SDS011;50943;51.448;7.646;2022-12-05T08:23:38;31.20;;;12.57;;
5831;SDS011;50943;51.448;7.646;2022-12-05T08:26:05;26.33;;;13.33;;
5831;SDS011;50943;51.448;7.646;2022-12-05T08:28:32;23.93;;;12.03;;
5831;SDS011;50943;51.448;7.646;2022-12-05T08:31:02;20.13;;;10.57;;
5831;SDS011;50943;51.448;7.646;2022-12-05T08:33:29;22.80;;;10.80;;
5831;SDS011;50943;51.448;7.646;2022-12-05T08:35:55;26.77;;;13.27;;
5831;SDS011;50943;51.448;7.646;2022-12-05T08:38:21;101.90;;;24.50;;
5831;SDS011;50943;51.448;7.646;2022-12-05T08:40:50;32.60;;;11.80;;
5831;SDS011;50943;51.448;7.646;2022-12-05T08:43:17;30.83;;;13.47;;
5831;SDS011;50943;51.448;7.646;2022-12-05T08:45:47;45.10;;;13.67;;
5831;SDS011;50943;51.448;7.646;2022-12-05T08:48:14;38.77;;;14.17;;
5831;SDS011;50943;51.448;7.646;2022-12-05T08:50:41;34.57;;;12.43;;
5831;SDS011;50943;51.448;7.646;2022-12-05T08:53:08;37.57;;;12.40;;
5831;SDS011;50943;51.448;7.646;2022-12-05T08:55:35;23.47;;;10.90;;
5831;SDS011;50943;51.448;7.646;2022-12-05T08:58:02;34.10;;;11.97;;
5831;SDS011;50943;51.448;7.646;2022-12-05T09:00:29;30.30;;;10.30;;
5831;SDS011;50943;51.448;7.646;2022-12-05T09:02:55;18.83;;;9.27;;
5831;SDS011;50943;51.448;7.646;2022-12-05T09:05:23;22.40;;;9.27;;
5831;SDS011;50943;51.448;7.646;2022-12-05T09:07:50;28.03;;;8.60;;
5831;SDS011;50943;51.448;7.646;2022-12-05T09:10:17;17.80;;;7.03;;
5831;SDS011;50943;51.448;7.646;2022-12-05T09:12:43;12.17;;;6.97;;
5831;SDS011;50943;51.448;7.646;2022-12-05T09:15:11;15.80;;;7.70;;
5831;SDS011;50943;51.448;7.646;2022-12-05T09:17:38;15.30;;;6.90;;
5831;SDS011;50943;51.448;7.646;2022-12-05T09:20:06;15.77;;;7.20;;
5831;SDS011;50943;51.448;7.646;2022-12-05T09:22:33;18.60;;;7.40;;
5831;SDS011;50943;51.448;7.646;2022-12-05T09:25:00;15.20;;;6.90;;
5831;SDS011;50943;51.448;7.646;2022-12-05T09:27:26;12.90;;;7.20;;
5831;SDS011;50943;51.448;7.646;2022-12-05T09:29:52;10.67;;;6.17;;
5831;SDS011;50943;51.448;7.646;2022-12-05T09:32:20;19.73;;;6.23;;
5831;SDS011;50943;51.448;7.646;2022-12-05T09:34:47;10.60;;;5.43;;
5831;SDS011;50943;51.448;7.646;2022-12-05T09:37:13;13.43;;;5.50;;
5831;SDS011;50943;51.448;7.646;2022-12-05T09:39:41;9.80;;;5.80;;
5831;SDS011;50943;51.448;7.646;2022-12-05T09:42:11;8.60;;;5.43;;
5831;SDS011;50943;51.448;7.646;2022-12-05T09:44:44;7.70;;;5.47;;
5831;SDS011;50943;51.448;7.646;2022-12-05T09:47:22;8.90;;;5.53;;
5831;SDS011;50943;51.448;7.646;2022-12-05T09:49:52;8.97;;;5.17;;
5831;SDS011;50943;51.448;7.646;2022-12-05T09:52:22;23.73;;;5.90;;
5831;SDS011;50943;51.448;7.646;2022-12-05T09:54:49;16.50;;;5.63;;
5831;SDS011;50943;51.448;7.646;2022-12-05T09:57:16;15.70;;;5.00;;
5831;SDS011;50943;51.448;7.646;2022-12-05T09:59:43;10.77;;;5.23;;
5831;SDS011;50943;51.448;7.646;2022-12-05T10:02:14;11.03;;;4.67;;
5831;SDS011;50943;51.448;7.646;2022-12-05T10:04:50;9.10;;;4.10;;
5831;SDS011;50943;51.448;7.646;2022-12-05T10:07:21;15.13;;;4.77;;
5831;SDS011;50943;51.448;7.646;2022-12-05T10:09:52;18.43;;;4.57;;
5831;SDS011;50943;51.448;7.646;2022-12-05T10:12:23;10.70;;;4.47;;
5831;SDS011;50943;51.448;7.646;2022-12-05T10:14:59;9.00;;;4.10;;
5831;SDS011;50943;51.448;7.646;2022-12-05T10:17:27;10.93;;;4.20;;
5831;SDS011;50943;51.448;7.646;2022-12-05T10:19:59;6.40;;;3.90;;
5831;SDS011;50943;51.448;7.646;2022-12-05T10:22:27;7.27;;;3.57;;
5831;SDS011;50943;51.448;7.646;2022-12-05T10:24:55;10.20;;;4.47;;
5831;SDS011;50943;51.448;7.646;2022-12-05T10:27:26;8.07;;;4.80;;
5831;SDS011;50943;51.448;7.646;2022-12-05T10:29:56;9.43;;;3.67;;
5831;SDS011;50943;51.448;7.646;2022-12-05T10:32:24;7.10;;;4.50;;
5831;SDS011;50943;51.448;7.646;2022-12-05T10:34:53;6.70;;;3.80;;
5831;SDS011;50943;51.448;7.646;2022-12-05T10:37:27;6.33;;;4.20;;
5831;SDS011;50943;51.448;7.646;2022-12-05T10:39:54;8.00;;;3.97;;
5831;SDS011;50943;51.448;7.646;2022-12-05T10:42:22;7.23;;;4.90;;
5831;SDS011;50943;51.448;7.646;2022-12-05T10:44:50;8.57;;;4.80;;
5831;SDS011;50943;51.448;7.646;2022-12-05T10:47:20;10.33;;;6.30;;
5831;SDS011;50943;51.448;7.646;2022-12-05T10:49:46;14.30;;;6.20;;
5831;SDS011;50943;51.448;7.646;2022-12-05T10:52:13;13.90;;;6.30;;
5831;SDS011;50943;51.448;7.646;2022-12-05T10:54:45;8.10;;;5.13;;
5831;SDS011;50943;51.448;7.646;2022-12-05T10:57:20;12.13;;;4.60;;
5831;SDS011;50943;51.448;7.646;2022-12-05T10:59:46;7.20;;;3.70;;
5831;SDS011;50943;51.448;7.646;2022-12-05T11:02:17;15.17;;;4.37;;
5831;SDS011;50943;51.448;7.646;2022-12-05T11:04:43;8.40;;;4.70;;
5831;SDS011;50943;51.448;7.646;2022-12-05T11:07:20;6.23;;;4.97;;
5831;SDS011;50943;51.448;7.646;2022-12-05T11:09:55;8.60;;;3.93;;
5831;SDS011;50943;51.448;7.646;2022-12-05T11:12:22;8.20;;;4.73;;
5831;SDS011;50943;51.448;7.646;2022-12-05T11:14:54;7.73;;;4.20;;
5831;SDS011;50943;51.448;7.646;2022-12-05T11:17:22;7.30;;;4.50;;
5831;SDS011;50943;51.448;7.646;2022-12-05T11:19:49;6.03;;;3.90;;
5831;SDS011;50943;51.448;7.646;2022-12-05T11:22:16;6.93;;;3.90;;
5831;SDS011;50943;51.448;7.646;2022-12-05T11:24:42;6.90;;;3.33;;
5831;SDS011;50943;51.448;7.646;2022-12-05T11:27:20;6.67;;;3.53;;
5831;SDS011;50943;51.448;7.646;2022-12-05T11:29:52;5.30;;;3.00;;
5831;SDS011;50943;51.448;7.646;2022-12-05T11:32:20;6.93;;;3.80;;
5831;SDS011;50943;51.448;7.646;2022-12-05T11:34:48;5.50;;;3.83;;
5831;SDS011;50943;51.448;7.646;2022-12-05T11:37:19;6.73;;;3.53;;
5831;SDS011;50943;51.448;7.646;2022-12-05T11:39:47;6.07;;;2.90;;
5831;SDS011;50943;51.448;7.646;2022-12-05T11:42:17;6.37;;;4.10;;
5831;SDS011;50943;51.448;7.646;2022-12-05T11:44:50;6.67;;;3.67;;
5831;SDS011;50943;51.448;7.646;2022-12-05T11:47:21;7.63;;;3.90;;
5831;SDS011;50943;51.448;7.646;2022-12-05T11:49:57;12.17;;;4.60;;
5831;SDS011;50943;51.448;7.646;2022-12-05T11:52:29;11.23;;;4.23;;
5831;SDS011;50943;51.448;7.646;2022-12-05T11:54:59;7.27;;;4.20;;
5831;SDS011;50943;51.448;7.646;2022-12-05T11:57:35;7.80;;;4.77;;
5831;SDS011;50943;51.448;7.646;2022-12-05T12:00:21;4.70;;;3.70;;
5831;SDS011;50943;51.448;7.646;2022-12-05T12:03:03;7.47;;;4.60;;
5831;SDS011;50943;51.448;7.646;2022-12-05T12:05:34;7.43;;;4.30;;
5831;SDS011;50943;51.448;7.646;2022-12-05T12:08:02;10.07;;;4.47;;
5831;SDS011;50943;51.448;7.646;2022-12-05T12:10:32;7.13;;;4.63;;
5831;SDS011;50943;51.448;7.646;2022-12-05T12:13:06;17.53;;;5.37;;
5831;SDS011;50943;51.448;7.646;2022-12-05T12:15:47;8.83;;;4.67;;
5831;SDS011;50943;51.448;7.646;2022-12-05T12:18:20;10.43;;;5.67;;
5831;SDS011;50943;51.448;7.646;2022-12-05T12:20:52;7.57;;;4.30;;
5831;SDS011;50943;51.448;7.646;2022-12-05T12:23:32;6.67;;;4.50;;
5831;SDS011;50943;51.448;7.646;2022-12-05T12:26:05;6.10;;;4.50;;
5831;SDS011;50943;51.448;7.646;2022-12-05T12:28:33;7.47;;;5.00;;
5831;SDS011;50943;51.448;7.646;2022-12-05T12:33:48;10.47;;;5.70;;
5831;SDS011;50943;51.448;7.646;2022-12-05T12:36:16;9.73;;;6.50;;
5831;SDS011;50943;51.448;7.646;2022-12-05T12:38:58;11.57;;;4.67;;
5831;SDS011;50943;51.448;7.646;2022-12-05T12:44:21;10.40;;;4.97;;
5831;SDS011;50943;51.448;7.646;2022-12-05T12:46:49;12.33;;;5.70;;
5831;SDS011;50943;51.448;7.646;2022-12-05T12:49:24;14.13;;;5.60;;
5831;SDS011;50943;51.448;7.646;2022-12-05T12:51:53;10.77;;;6.43;;
5831;SDS011;50943;51.448;7.646;2022-12-05T12:54:26;14.30;;;6.63;;
5831;SDS011;50943;51.448;7.646;2022-12-05T12:56:59;10.97;;;6.83;;
5831;SDS011;50943;51.448;7.646;2022-12-05T12:59:43;12.90;;;6.33;;
5831;SDS011;50943;51.448;7.646;2022-12-05T13:02:13;17.37;;;10.60;;
5831;SDS011;50943;51.448;7.646;2022-12-05T13:04:45;18.40;;;8.60;;
5831;SDS011;50943;51.448;7.646;2022-12-05T13:07:12;14.60;;;9.80;;
5831;SDS011;50943;51.448;7.646;2022-12-05T13:09:41;14.87;;;9.43;;
5831;SDS011;50943;51.448;7.646;2022-12-05T13:12:09;12.70;;;7.33;;
5831;SDS011;50943;51.448;7.646;2022-12-05T13:14:36;12.57;;;8.20;;
5831;SDS011;50943;51.448;7.646;2022-12-05T13:17:04;11.70;;;6.53;;
5831;SDS011;50943;51.448;7.646;2022-12-05T13:19:34;10.40;;;6.10;;
5831;SDS011;50943;51.448;7.646;2022-12-05T13:22:04;10.43;;;5.43;;
5831;SDS011;50943;51.448;7.646;2022-12-05T13:24:32;11.43;;;7.17;;
5831;SDS011;50943;51.448;7.646;2022-12-05T13:26:59;13.27;;;7.63;;
5831;SDS011;50943;51.448;7.646;2022-12-05T13:29:27;13.30;;;7.63;;
5831;SDS011;50943;51.448;7.646;2022-12-05T13:31:54;9.90;;;6.27;;
5831;SDS011;50943;51.448;7.646;2022-12-05T13:37:19;14.03;;;7.20;;
5831;SDS011;50943;51.448;7.646;2022-12-05T13:40:04;8.97;;;5.40;;
5831;SDS011;50943;51.448;7.646;2022-12-05T13:42:57;10.13;;;6.40;;
5831;SDS011;50943;51.448;7.646;2022-12-05T13:45:25;12.10;;;5.03;;
5831;SDS011;50943;51.448;7.646;2022-12-05T13:47:53;10.40;;;6.60;;
5831;SDS011;50943;51.448;7.646;2022-12-05T13:50:25;9.10;;;5.33;;
5831;SDS011;50943;51.448;7.646;2022-12-05T13:52:55;5.77;;;4.00;;
5831;SDS011;50943;51.448;7.646;2022-12-05T13:55:24;9.87;;;6.00;;
5831;SDS011;50943;51.448;7.646;2022-12-05T13:57:53;8.40;;;4.50;;
5831;SDS011;50943;51.448;7.646;2022-12-05T14:00:30;4.80;;;3.40;;
5831;SDS011;50943;51.448;7.646;2022-12-05T14:03:01;7.57;;;4.50;;
5831;SDS011;50943;51.448;7.646;2022-12-05T14:05:36;9.17;;;3.80;;
5831;SDS011;50943;51.448;7.646;2022-12-05T14:13:39;8.33;;;5.10;;
5831;SDS011;50943;51.448;7.646;2022-12-05T14:18:59;7.60;;;4.00;;
5831;SDS011;50943;51.448;7.646;2022-12-05T14:21:34;6.47;;;3.70;;
5831;SDS011;50943;51.448;7.646;2022-12-05T14:24:04;7.90;;;4.80;;
5831;SDS011;50943;51.448;7.646;2022-12-05T14:26:39;13.67;;;8.00;;
5831;SDS011;50943;51.448;7.646;2022-12-05T14:29:16;13.97;;;8.20;;
5831;SDS011;50943;51.448;7.646;2022-12-05T14:31:49;12.20;;;7.10;;
5831;SDS011;50943;51.448;7.646;2022-12-05T14:34:22;8.00;;;5.07;;
5831;SDS011;50943;51.448;7.646;2022-12-05T14:36:53;10.40;;;7.00;;
5831;SDS011;50943;51.448;7.646;2022-12-05T14:39:20;15.63;;;8.90;;
5831;SDS011;50943;51.448;7.646;2022-12-05T14:41:54;19.67;;;9.10;;
5831;SDS011;50943;51.448;7.646;2022-12-05T14:44:22;13.83;;;7.37;;
5831;SDS011;50943;51.448;7.646;2022-12-05T14:46:54;16.53;;;8.63;;
5831;SDS011;50943;51.448;7.646;2022-12-05T14:49:42;12.77;;;7.40;;
5831;SDS011;50943;51.448;7.646;2022-12-05T14:52:18;11.70;;;5.63;;
5831;SDS011;50943;51.448;7.646;2022-12-05T14:54:45;13.00;;;7.40;;
5831;SDS011;50943;51.448;7.646;2022-12-05T14:57:12;12.53;;;8.00;;
5831;SDS011;50943;51.448;7.646;2022-12-05T14:59:43;14.23;;;8.17;;
5831;SDS011;50943;51.448;7.646;2022-12-05T15:02:15;17.07;;;7.90;;
5831;SDS011;50943;51.448;7.646;2022-12-05T15:04:45;10.83;;;5.60;;
5831;SDS011;50943;51.448;7.646;2022-12-05T15:07:15;9.23;;;5.30;;
5831;SDS011;50943;51.448;7.646;2022-12-05T15:09:45;17.27;;;8.57;;
5831;SDS011;50943;51.448;7.646;2022-12-05T15:12:15;9.83;;;5.13;;